createdAt,value
2022-10-06T00:00:36.446Z,10.00
2022-10-06T00:03:03.181Z,8.20
2022-10-06T00:05:29.992Z,10.90
2022-10-06T00:07:57.217Z,8.80
2022-10-06T00:10:23.936Z,6.90
2022-10-06T00:12:51.105Z,8.30
2022-10-06T00:15:20.173Z,6.50
2022-10-06T00:17:47.024Z,6.70
2022-10-06T00:20:14.528Z,8.00
2022-10-06T00:22:44.852Z,10.50
2022-10-06T00:25:13.269Z,6.70
2022-10-06T00:27:41.813Z,6.60
2022-10-06T00:30:13.301Z,5.70
2022-10-06T00:32:40.065Z,6.40
2022-10-06T00:38:10.818Z,6.60
2022-10-06T00:40:46.026Z,5.20
2022-10-06T00:43:41.552Z,7.00
2022-10-06T00:46:09.660Z,7.20
2022-10-06T00:48:36.385Z,6.20
2022-10-06T00:51:03.120Z,5.60
2022-10-06T00:53:29.956Z,5.90
2022-10-06T00:55:57.323Z,8.30
2022-10-06T00:58:25.005Z,6.30
2022-10-06T01:00:55.396Z,5.40
2022-10-06T01:03:25.774Z,6.60
2022-10-06T01:05:52.763Z,6.60
2022-10-06T01:08:19.446Z,6.30
2022-10-06T01:10:46.180Z,5.20
2022-10-06T01:13:13.380Z,6.90
2022-10-06T01:15:55.480Z,7.20
2022-10-06T01:18:22.439Z,6.10
2022-10-06T01:20:52.917Z,6.00
2022-10-06T01:23:19.648Z,6.50
2022-10-06T01:25:46.444Z,7.00
2022-10-06T01:28:13.141Z,5.80
2022-10-06T01:30:46.338Z,16.50
2022-10-06T01:33:13.866Z,8.20
2022-10-06T01:35:41.016Z,8.60
2022-10-06T01:38:07.683Z,5.70
2022-10-06T01:40:34.965Z,5.70
2022-10-06T01:43:01.806Z,5.50
2022-10-06T01:45:28.802Z,6.70
2022-10-06T01:47:55.525Z,4.90
2022-10-06T01:50:22.337Z,5.60
2022-10-06T01:52:49.133Z,6.10
2022-10-06T01:55:17.183Z,7.80
2022-10-06T01:57:44.021Z,8.10
2022-10-06T02:00:12.092Z,6.50
2022-10-06T02:02:41.991Z,6.00
2022-10-06T02:05:08.926Z,5.80
2022-10-06T02:07:38.457Z,23.10
2022-10-06T02:10:06.026Z,38.30
2022-10-06T02:12:33.476Z,57.00
2022-10-06T02:15:00.355Z,16.00
2022-10-06T02:17:27.057Z,8.50
2022-10-06T02:19:53.729Z,8.30
2022-10-06T02:22:20.382Z,7.10
2022-10-06T02:24:47.935Z,7.50
2022-10-06T02:27:14.641Z,6.60
2022-10-06T02:29:41.759Z,7.80
2022-10-06T02:32:08.716Z,7.90
2022-10-06T02:34:35.346Z,9.20
2022-10-06T02:37:02.357Z,7.50
2022-10-06T02:39:29.726Z,9.90
2022-10-06T02:41:56.424Z,8.10
2022-10-06T02:44:24.984Z,9.40
2022-10-06T02:46:53.761Z,8.40
2022-10-06T02:49:20.676Z,8.20
2022-10-06T02:51:47.961Z,7.30
2022-10-06T02:54:15.493Z,17.20
2022-10-06T02:56:42.212Z,15.00
2022-10-06T02:59:08.894Z,16.10
2022-10-06T03:01:36.410Z,19.60
2022-10-06T03:04:11.760Z,14.00
2022-10-06T03:06:39.970Z,10.00
2022-10-06T03:09:15.936Z,9.80
2022-10-06T03:11:43.326Z,7.70
2022-10-06T03:14:14.096Z,7.40
2022-10-06T03:16:42.796Z,5.90
2022-10-06T03:19:16.820Z,6.90
2022-10-06T03:21:44.658Z,6.20
2022-10-06T03:24:11.985Z,8.20
2022-10-06T03:26:40.551Z,8.30
2022-10-06T03:29:11.270Z,7.00
2022-10-06T03:31:40.052Z,6.30
2022-10-06T03:34:06.988Z,5.90
2022-10-06T03:36:34.034Z,6.50
2022-10-06T03:39:01.886Z,5.80
2022-10-06T03:41:30.423Z,8.00
2022-10-06T03:43:57.956Z,8.40
2022-10-06T03:46:26.773Z,8.00
2022-10-06T03:48:53.661Z,8.30
2022-10-06T03:51:26.937Z,6.20
2022-10-06T03:53:54.139Z,7.20
2022-10-06T03:56:23.278Z,6.20
2022-10-06T03:58:54.827Z,6.90
2022-10-06T04:01:26.220Z,7.50
2022-10-06T04:03:54.717Z,8.00
2022-10-06T04:06:21.655Z,7.80
2022-10-06T04:08:49.119Z,5.80
2022-10-06T04:11:17.528Z,7.10
2022-10-06T04:13:44.714Z,9.70
2022-10-06T04:16:18.240Z,6.70
2022-10-06T04:18:46.149Z,7.40
2022-10-06T04:21:13.171Z,6.40
2022-10-06T04:23:40.397Z,8.00
2022-10-06T04:26:18.106Z,8.30
2022-10-06T04:28:48.729Z,9.10
2022-10-06T04:31:19.391Z,7.30
2022-10-06T04:33:47.065Z,7.50
2022-10-06T04:36:17.241Z,8.10
2022-10-06T04:38:43.969Z,7.50
2022-10-06T04:41:12.750Z,5.70
2022-10-06T04:43:40.386Z,7.60
2022-10-06T04:46:30.256Z,6.30
2022-10-06T04:48:54.623Z,6.90
2022-10-06T04:51:24.906Z,7.60
2022-10-06T04:53:51.993Z,7.80
2022-10-06T04:56:26.413Z,9.30
2022-10-06T04:58:54.367Z,8.60
2022-10-06T05:01:22.784Z,9.70
2022-10-06T05:03:50.885Z,8.40
2022-10-06T05:06:19.568Z,9.00
2022-10-06T05:08:54.218Z,6.70
2022-10-06T05:11:25.603Z,13.00
2022-10-06T05:13:54.893Z,6.30
2022-10-06T05:16:22.222Z,6.50
2022-10-06T05:18:48.978Z,6.50
2022-10-06T05:21:17.465Z,6.70
2022-10-06T05:23:44.390Z,7.30
2022-10-06T05:26:31.289Z,8.30
2022-10-06T05:28:58.763Z,6.70
2022-10-06T05:31:33.330Z,5.70
2022-10-06T05:34:02.575Z,7.20
2022-10-06T05:36:30.413Z,6.70
2022-10-06T05:38:57.703Z,14.50
2022-10-06T05:41:26.589Z,12.50
2022-10-06T05:43:55.763Z,7.50
2022-10-06T05:46:25.148Z,8.40
2022-10-06T05:48:57.680Z,7.60
2022-10-06T05:51:31.256Z,7.50
2022-10-06T05:53:59.943Z,8.70
2022-10-06T05:56:31.335Z,6.30
2022-10-06T05:58:58.507Z,7.00
2022-10-06T06:01:27.382Z,6.50
2022-10-06T06:03:56.142Z,6.00
2022-10-06T06:06:27.791Z,6.40
2022-10-06T06:08:58.519Z,5.70
2022-10-06T06:11:27.725Z,5.00
2022-10-06T06:13:56.777Z,6.20
2022-10-06T06:16:24.074Z,5.20
2022-10-06T06:18:51.084Z,6.00
2022-10-06T06:21:18.208Z,6.80
2022-10-06T06:23:46.625Z,7.50
2022-10-06T06:26:24.685Z,8.50
2022-10-06T06:28:56.492Z,5.60
2022-10-06T06:31:26.677Z,5.90
2022-10-06T06:33:56.493Z,6.20
2022-10-06T06:36:37.003Z,5.30
2022-10-06T06:39:08.661Z,6.00
2022-10-06T06:41:40.594Z,7.00
2022-10-06T06:44:17.925Z,7.50
2022-10-06T06:46:53.473Z,4.90
2022-10-06T06:49:22.033Z,11.60
2022-10-06T06:51:53.940Z,9.00
2022-10-06T06:54:22.458Z,7.50
2022-10-06T06:56:55.351Z,6.70
2022-10-06T06:59:22.502Z,5.50
2022-10-06T07:01:51.581Z,4.90
2022-10-06T07:04:20.997Z,5.30
2022-10-06T07:06:57.063Z,5.50
2022-10-06T07:09:26.126Z,5.20
2022-10-06T07:11:58.239Z,6.40
2022-10-06T07:14:25.279Z,5.30
2022-10-06T07:17:11.013Z,6.10
2022-10-06T07:19:47.476Z,6.70
2022-10-06T07:22:35.046Z,6.90
2022-10-06T07:25:15.460Z,7.40
2022-10-06T07:27:47.380Z,6.20
2022-10-06T07:30:19.481Z,5.20
2022-10-06T07:32:50.329Z,5.10
2022-10-06T07:35:20.242Z,5.30
2022-10-06T07:37:48.885Z,6.30
2022-10-06T07:40:16.132Z,5.30
2022-10-06T07:42:49.183Z,7.20
2022-10-06T07:45:41.121Z,6.00
2022-10-06T07:48:18.775Z,7.20
2022-10-06T07:50:50.053Z,5.20
2022-10-06T07:53:20.308Z,5.70
2022-10-06T07:55:52.549Z,4.50
2022-10-06T07:58:24.021Z,4.90
2022-10-06T08:00:52.831Z,5.10
2022-10-06T08:03:20.039Z,5.70
2022-10-06T08:05:47.556Z,5.70
2022-10-06T08:08:14.983Z,4.60
2022-10-06T08:10:42.361Z,5.40
2022-10-06T08:13:09.140Z,5.50
2022-10-06T08:15:35.877Z,5.70
2022-10-06T08:18:08.739Z,5.90
2022-10-06T08:20:39.130Z,4.90
2022-10-06T08:23:08.705Z,6.40
2022-10-06T08:25:42.569Z,5.30
2022-10-06T08:28:12.814Z,5.40
2022-10-06T08:30:39.981Z,5.30
2022-10-06T08:33:06.658Z,8.70
2022-10-06T08:35:33.588Z,6.30
2022-10-06T08:38:00.367Z,5.70
2022-10-06T08:40:27.108Z,4.80
2022-10-06T08:42:55.726Z,6.70
2022-10-06T08:45:39.522Z,5.30
2022-10-06T08:48:14.055Z,6.10
2022-10-06T08:50:48.793Z,7.10
2022-10-06T08:53:21.803Z,4.70
2022-10-06T08:55:50.335Z,4.50
2022-10-06T08:58:35.622Z,5.90
2022-10-06T09:01:12.871Z,5.60
2022-10-06T09:03:39.587Z,5.50
2022-10-06T09:06:22.131Z,5.90
2022-10-06T09:08:54.409Z,6.00
2022-10-06T09:11:25.636Z,5.50
2022-10-06T09:13:55.636Z,7.60
2022-10-06T09:16:31.110Z,5.90
2022-10-06T09:19:18.370Z,8.20
2022-10-06T09:21:50.656Z,5.10
2022-10-06T09:24:18.918Z,4.40
2022-10-06T09:26:46.646Z,5.40
2022-10-06T09:29:13.998Z,5.50
2022-10-06T09:31:42.465Z,4.80
2022-10-06T09:34:37.538Z,5.20
2022-10-06T09:37:07.567Z,5.50
2022-10-06T09:39:38.734Z,4.00
2022-10-06T09:42:15.252Z,5.20
2022-10-06T09:44:51.380Z,5.20
2022-10-06T09:47:45.176Z,4.40
2022-10-06T09:50:17.550Z,4.60
2022-10-06T09:53:03.678Z,6.00
2022-10-06T09:55:37.371Z,5.20
2022-10-06T09:58:16.356Z,5.80
2022-10-06T10:00:48.218Z,4.30
2022-10-06T10:03:16.120Z,4.60
2022-10-06T10:05:50.528Z,5.30
2022-10-06T10:08:22.397Z,4.50
2022-10-06T10:10:50.615Z,3.80
2022-10-06T10:13:25.329Z,5.00
2022-10-06T10:15:54.428Z,4.70
2022-10-06T10:18:26.578Z,4.90
2022-10-06T10:20:57.579Z,4.10
2022-10-06T10:23:33.448Z,5.00
2022-10-06T10:26:03.727Z,4.90
2022-10-06T10:28:51.676Z,4.30
2022-10-06T10:31:34.034Z,5.90
2022-10-06T10:34:23.954Z,6.10
2022-10-06T10:36:56.478Z,4.20
2022-10-06T10:39:33.724Z,4.60
2022-10-06T10:42:02.728Z,5.60
2022-10-06T10:44:32.726Z,4.40
2022-10-06T10:47:39.231Z,3.90
2022-10-06T10:50:27.294Z,5.20
2022-10-06T10:53:08.923Z,5.30
2022-10-06T10:55:44.761Z,4.90
2022-10-06T10:58:20.051Z,6.60
2022-10-06T11:00:50.378Z,4.50
2022-10-06T11:03:17.097Z,4.20
2022-10-06T11:06:09.153Z,4.90
2022-10-06T11:08:51.245Z,6.50
2022-10-06T11:11:49.869Z,5.00
2022-10-06T11:14:28.672Z,5.20
2022-10-06T11:17:03.895Z,5.00
2022-10-06T11:20:04.437Z,5.50
2022-10-06T11:22:41.906Z,4.90
2022-10-06T11:25:37.216Z,4.50
2022-10-06T11:28:13.504Z,4.50
2022-10-06T11:31:12.484Z,4.30
2022-10-06T11:33:45.956Z,6.70
2022-10-06T11:36:16.265Z,5.10
2022-10-06T11:38:46.968Z,4.70
2022-10-06T11:41:21.397Z,4.80
2022-10-06T11:44:04.446Z,4.70
2022-10-06T11:46:34.924Z,4.00
2022-10-06T11:49:31.029Z,4.60
2022-10-06T11:52:18.057Z,5.50
2022-10-06T11:54:47.518Z,4.10
2022-10-06T12:01:03.215Z,5.20
2022-10-06T12:03:31.141Z,5.50
2022-10-06T12:05:57.968Z,5.80
2022-10-06T12:08:40.829Z,4.90
2022-10-06T12:11:39.245Z,4.50
2022-10-06T12:15:31.807Z,5.00
2022-10-06T12:17:12.692Z,4.40
2022-10-06T12:19:49.599Z,5.30
2022-10-06T12:22:33.273Z,4.90
2022-10-06T12:25:03.166Z,5.10
2022-10-06T12:27:39.918Z,6.30
2022-10-06T12:30:24.685Z,5.00
2022-10-06T12:32:53.962Z,4.30
2022-10-06T12:35:25.577Z,5.30
2022-10-06T12:37:54.688Z,7.40
2022-10-06T12:40:42.035Z,5.80
2022-10-06T12:43:17.656Z,7.10
2022-10-06T12:45:54.833Z,7.70
2022-10-06T12:48:28.773Z,5.10
2022-10-06T12:51:03.749Z,6.40
2022-10-06T12:56:32.578Z,8.20
2022-10-06T12:59:19.924Z,4.50
2022-10-06T13:01:48.802Z,4.70
2022-10-06T13:04:35.839Z,5.50
2022-10-06T13:07:10.107Z,6.50
2022-10-06T13:09:37.340Z,4.70
2022-10-06T13:12:22.315Z,4.10
2022-10-06T13:15:13.199Z,6.20
2022-10-06T13:17:45.078Z,4.20
2022-10-06T13:20:26.501Z,4.30
2022-10-06T13:23:00.521Z,4.30
2022-10-06T13:25:44.540Z,5.20
2022-10-06T13:28:34.561Z,4.00
2022-10-06T13:31:20.663Z,5.80
2022-10-06T13:34:03.717Z,4.80
2022-10-06T13:36:32.698Z,4.40
2022-10-06T13:38:59.628Z,6.90
2022-10-06T13:41:38.130Z,6.60
2022-10-06T13:44:15.082Z,3.70
2022-10-06T13:46:44.117Z,4.70
2022-10-06T13:49:18.371Z,4.30
2022-10-06T13:51:47.835Z,4.90
2022-10-06T13:54:41.677Z,4.80
2022-10-06T13:57:47.926Z,6.40
2022-10-06T14:00:16.346Z,5.90
2022-10-06T14:02:54.271Z,4.70
2022-10-06T14:05:26.505Z,4.60
2022-10-06T14:08:01.509Z,6.00
2022-10-06T14:10:36.725Z,5.00
2022-10-06T14:13:04.377Z,4.90
2022-10-06T14:15:35.320Z,5.10
2022-10-06T14:18:03.229Z,7.30
2022-10-06T14:20:42.765Z,5.60
2022-10-06T14:23:32.279Z,6.00
2022-10-06T14:25:59.289Z,5.00
2022-10-06T14:28:26.121Z,7.40
2022-10-06T14:30:53.776Z,5.50
2022-10-06T14:33:21.194Z,4.90
2022-10-06T14:35:48.816Z,4.80
2022-10-06T14:38:16.182Z,5.10
2022-10-06T14:40:43.500Z,5.00
2022-10-06T14:43:11.073Z,4.90
2022-10-06T14:45:42.114Z,6.80
2022-10-06T14:48:09.761Z,7.80
2022-10-06T14:50:36.789Z,6.70
2022-10-06T14:53:04.061Z,5.80
2022-10-06T14:55:31.354Z,5.10
2022-10-06T14:57:58.466Z,6.60
2022-10-06T15:00:28.465Z,5.90
2022-10-06T15:02:56.385Z,9.30
2022-10-06T15:05:24.316Z,6.30
2022-10-06T15:08:10.426Z,10.80
2022-10-06T15:10:39.376Z,10.20
2022-10-06T15:13:08.629Z,12.70
2022-10-06T15:15:36.209Z,9.70
2022-10-06T15:18:03.940Z,6.60
2022-10-06T15:20:30.924Z,9.20
2022-10-06T15:22:58.727Z,8.30
2022-10-06T15:25:45.892Z,8.10
2022-10-06T15:28:32.626Z,9.10
2022-10-06T15:31:01.525Z,8.80
2022-10-06T15:33:31.317Z,10.30
2022-10-06T15:36:27.400Z,10.40
2022-10-06T15:38:55.845Z,9.60
2022-10-06T15:41:23.885Z,9.60
2022-10-06T15:44:00.326Z,10.00
2022-10-06T15:46:38.341Z,9.00
2022-10-06T15:49:08.035Z,9.30
2022-10-06T15:51:46.056Z,7.80
2022-10-06T15:54:21.116Z,10.50
2022-10-06T15:56:49.151Z,17.10
2022-10-06T15:59:16.357Z,11.60
2022-10-06T16:01:46.652Z,12.20
2022-10-06T16:04:22.217Z,12.70
2022-10-06T16:06:59.495Z,31.00
2022-10-06T16:09:29.321Z,20.60
2022-10-06T16:11:58.050Z,14.80
2022-10-06T16:14:25.123Z,10.70
2022-10-06T16:16:53.568Z,12.40
2022-10-06T16:19:20.959Z,12.70
2022-10-06T16:21:49.070Z,8.70
2022-10-06T16:24:19.845Z,9.60
2022-10-06T16:26:53.977Z,7.30
2022-10-06T16:32:49.044Z,8.50
2022-10-06T16:35:18.295Z,8.90
2022-10-06T16:37:49.777Z,10.20
2022-10-06T16:40:19.926Z,11.10
2022-10-06T16:42:47.300Z,14.40
2022-10-06T16:45:17.535Z,12.40
2022-10-06T16:47:44.787Z,12.20
2022-10-06T16:50:12.067Z,13.00
2022-10-06T16:52:41.219Z,12.90
2022-10-06T16:55:09.117Z,15.20
2022-10-06T16:57:36.869Z,18.00
2022-10-06T17:00:06.189Z,24.80
2022-10-06T17:02:34.089Z,23.60
2022-10-06T17:05:01.426Z,22.60
2022-10-06T17:07:29.624Z,25.50
2022-10-06T17:10:18.908Z,31.40
2022-10-06T17:12:43.810Z,28.30
2022-10-06T17:15:10.954Z,29.40
2022-10-06T17:17:38.387Z,31.20
2022-10-06T17:20:06.201Z,30.10
2022-10-06T17:22:40.042Z,28.10
2022-10-06T17:25:09.017Z,33.00
2022-10-06T17:27:41.907Z,30.90
2022-10-06T17:30:10.958Z,27.50
2022-10-06T17:32:44.738Z,33.60
2022-10-06T17:35:12.240Z,36.90
2022-10-06T17:37:41.483Z,37.40
2022-10-06T17:40:09.723Z,41.60
2022-10-06T17:42:37.695Z,32.40
2022-10-06T17:45:06.750Z,31.60
2022-10-06T17:47:35.947Z,29.00
2022-10-06T17:50:09.719Z,28.60
2022-10-06T17:52:39.029Z,29.30
2022-10-06T17:55:06.557Z,27.10
2022-10-06T17:57:34.925Z,29.50
2022-10-06T18:00:03.366Z,28.20
2022-10-06T18:02:40.634Z,27.10
2022-10-06T18:05:08.042Z,22.60
2022-10-06T18:07:39.126Z,25.10
2022-10-06T18:10:29.295Z,29.60
2022-10-06T18:12:58.398Z,29.60
2022-10-06T18:15:25.524Z,34.60
2022-10-06T18:17:53.411Z,38.30
2022-10-06T18:20:42.930Z,34.10
2022-10-06T18:23:10.244Z,32.70
2022-10-06T18:25:37.691Z,31.70
2022-10-06T18:28:09.613Z,31.90
2022-10-06T18:30:38.832Z,31.10
2022-10-06T18:36:14.600Z,32.30
2022-10-06T18:38:44.614Z,35.60
2022-10-06T18:41:34.492Z,35.40
2022-10-06T18:44:05.949Z,26.80
2022-10-06T18:47:03.957Z,24.30
2022-10-06T18:49:40.459Z,26.30
2022-10-06T18:52:08.449Z,23.80
2022-10-06T18:54:56.380Z,25.70
2022-10-06T18:58:23.276Z,23.80
2022-10-06T19:00:58.159Z,25.30
2022-10-06T19:03:28.856Z,26.90
2022-10-06T19:05:55.957Z,25.50
2022-10-06T19:08:22.763Z,32.00
2022-10-06T19:11:08.471Z,34.00
2022-10-06T19:13:41.779Z,40.80
2022-10-06T19:16:09.600Z,39.50
2022-10-06T19:18:38.697Z,39.50
2022-10-06T19:21:09.818Z,36.10
2022-10-06T19:23:41.884Z,38.80
2022-10-06T19:26:11.391Z,35.20
2022-10-06T19:28:39.692Z,31.70
2022-10-06T19:31:13.376Z,32.90
2022-10-06T19:33:40.641Z,32.50
2022-10-06T19:36:08.230Z,33.50
2022-10-06T19:38:37.282Z,42.30
2022-10-06T19:41:23.811Z,39.80
2022-10-06T19:43:50.852Z,38.80
2022-10-06T19:46:18.233Z,45.80
2022-10-06T19:48:44.973Z,40.10
2022-10-06T19:51:16.462Z,41.80
2022-10-06T19:53:51.192Z,45.00
2022-10-06T19:56:19.023Z,43.30
2022-10-06T19:58:45.791Z,39.50
2022-10-06T20:01:12.624Z,41.30
2022-10-06T20:03:40.199Z,41.90
2022-10-06T20:06:12.123Z,41.80
2022-10-06T20:08:40.516Z,41.80
2022-10-06T20:11:10.416Z,34.10
2022-10-06T20:13:40.812Z,38.90
2022-10-06T20:16:12.702Z,39.30
2022-10-06T20:18:45.746Z,41.90
2022-10-06T20:21:19.980Z,32.40
2022-10-06T20:23:50.878Z,35.10
2022-10-06T20:26:22.484Z,32.90
2022-10-06T20:29:10.343Z,34.70
2022-10-06T20:31:47.120Z,31.90
2022-10-06T20:34:16.175Z,30.30
2022-10-06T20:36:43.645Z,29.80
2022-10-06T20:39:34.624Z,28.10
2022-10-06T20:42:01.924Z,27.80
2022-10-06T20:44:28.682Z,27.40
2022-10-06T20:46:55.745Z,26.80
2022-10-06T20:49:22.541Z,25.60
2022-10-06T20:51:52.422Z,24.40
2022-10-06T20:54:20.263Z,30.70
2022-10-06T20:56:51.246Z,25.80
2022-10-06T20:59:18.924Z,25.30
2022-10-06T21:01:46.156Z,26.30
2022-10-06T21:04:15.110Z,26.90
2022-10-06T21:06:42.339Z,26.50
2022-10-06T21:09:13.101Z,26.10
2022-10-06T21:11:41.425Z,26.20
2022-10-06T21:14:13.175Z,25.60
2022-10-06T21:16:48.076Z,26.70
2022-10-06T21:19:20.018Z,28.70
2022-10-06T21:21:54.036Z,30.80
2022-10-06T21:24:22.132Z,34.70
2022-10-06T21:26:50.435Z,31.60
2022-10-06T21:29:17.207Z,29.10
2022-10-06T21:31:44.796Z,27.10
2022-10-06T21:34:11.800Z,22.20
2022-10-06T21:36:39.392Z,25.10
2022-10-06T21:39:08.404Z,21.20
2022-10-06T21:41:39.463Z,21.60
2022-10-06T21:44:11.251Z,22.10
2022-10-06T21:46:55.297Z,19.50
2022-10-06T21:49:24.290Z,19.10
2022-10-06T21:51:52.677Z,19.40
2022-10-06T21:54:20.178Z,17.90
2022-10-06T21:56:47.738Z,17.40
2022-10-06T21:59:14.623Z,17.60
2022-10-06T22:01:43.664Z,21.70
2022-10-06T22:04:13.438Z,24.20
2022-10-06T22:06:41.645Z,22.80
2022-10-06T22:09:10.318Z,19.70
2022-10-06T22:11:39.134Z,16.30
2022-10-06T22:14:10.833Z,18.40
2022-10-06T22:16:38.529Z,15.10
2022-10-06T22:19:07.190Z,16.10
2022-10-06T22:21:37.754Z,17.90
2022-10-06T22:24:15.930Z,15.70
2022-10-06T22:26:43.326Z,14.70
2022-10-06T22:29:12.551Z,16.50
2022-10-06T22:31:40.368Z,14.90
2022-10-06T22:34:07.956Z,16.80
2022-10-06T22:36:34.934Z,14.60
2022-10-06T22:39:01.816Z,15.50
2022-10-06T22:41:28.714Z,14.90
2022-10-06T22:43:57.617Z,14.10
2022-10-06T22:46:29.197Z,14.50
2022-10-06T22:48:56.525Z,15.40
2022-10-06T22:51:23.293Z,14.00
2022-10-06T22:53:58.804Z,12.80
2022-10-06T22:56:26.888Z,13.60
2022-10-06T22:58:53.797Z,14.50
2022-10-06T23:01:20.795Z,14.80
2022-10-06T23:03:47.782Z,12.80
2022-10-06T23:06:16.606Z,13.00
2022-10-06T23:08:43.329Z,14.10
2022-10-06T23:11:15.405Z,11.80
2022-10-06T23:13:43.353Z,13.20
2022-10-06T23:16:11.364Z,13.00
2022-10-06T23:18:39.191Z,12.50
2022-10-06T23:21:19.264Z,13.60
2022-10-06T23:23:46.314Z,11.50
2022-10-06T23:26:14.639Z,14.50
2022-10-06T23:28:41.669Z,14.30
2022-10-06T23:31:10.015Z,15.40
2022-10-06T23:33:37.347Z,15.80
2022-10-06T23:36:05.968Z,11.80
2022-10-06T23:38:32.956Z,12.70
2022-10-06T23:40:59.742Z,14.40
2022-10-06T23:43:26.818Z,13.40
2022-10-06T23:45:53.759Z,12.70
2022-10-06T23:48:20.695Z,11.40
2022-10-06T23:51:00.926Z,13.00
2022-10-06T23:53:28.034Z,13.70
2022-10-06T23:55:55.311Z,10.70
2022-10-06T23:58:22.691Z,11.90
